Time;durP1;ratioP1;P1;durP2;ratioP2;P2;SDS_P1;SDS_P2;PMS_P1;PMS_P2;Temp;Humidity;BMP_temperature;BMP_pressure;BME280_temperature;BME280_humidity;BME280_pressure;Samples;Min_cycle;Max_cycle;Signal;HPM_P1;HPM_P2
2022/07/09 00:00:03;;;;;;;;;;;17.20;99.90;;;;;;5021664;28;20336;-86
2022/07/09 00:02:41;;;;;;;;;;;17.20;99.90;;;;;;5014236;28;19917;-85
2022/07/09 00:05:16;;;;;;;;;;;17.10;99.90;;;;;;5017871;28;19924;-86
2022/07/09 00:07:45;;;;;;;;;;;17.10;99.90;;;;;;4992492;28;19918;-84
2022/07/09 00:10:30;;;;;;;;;;;17.20;99.90;;;;;;4995352;28;19925;-86
2022/07/09 00:13:11;;;;;;;;;;;17.20;99.90;;;;;;4999592;28;20056;-85
2022/07/09 00:16:00;;;;;;;;;;;17.10;99.90;;;;;;5010501;28;20057;-85
2022/07/09 00:18:42;;;;;;;;;;;17.20;99.90;;;;;;4982330;28;19925;-85
2022/07/09 00:21:11;;;;;;;;;;;17.10;99.90;;;;;;5001105;28;20341;-85
2022/07/09 00:24:00;;;;;;;;;;;17.10;99.90;;;;;;5010715;28;19971;-86
2022/07/09 00:29:42;;;;;;;;;;;17.10;99.90;;;;;;4994888;28;19918;-85
2022/07/09 00:32:10;;;;;;;;;;;17.10;99.90;;;;;;4989468;28;19993;-85
2022/07/09 00:34:47;;;;;;;;;;;17.10;99.90;;;;;;5011803;28;19924;-85
2022/07/09 00:37:15;;;;;;;;;;;17.10;99.90;;;;;;5020868;28;19928;-86
2022/07/09 00:39:46;;;;;;;;;;;17.10;99.90;;;;;;5013892;28;20013;-85
2022/07/09 00:42:21;;;;;;;;;;;17.20;99.90;;;;;;4995476;28;20275;-86
2022/07/09 00:44:52;;;;;;;;;;;17.20;99.90;;;;;;5012259;28;19979;-86
2022/07/09 00:47:41;;;;;;;;;;;17.20;99.90;;;;;;5036582;28;20363;-86
2022/07/09 00:50:16;;;;;;;;;;;17.20;99.90;;;;;;4998581;28;19956;-85
2022/07/09 00:52:44;;;;;;;;;;;17.20;99.90;;;;;;5040715;28;20310;-85
2022/07/09 00:55:15;;;;;;;;;;;17.30;99.90;;;;;;5037642;28;20375;-85
2022/07/09 00:58:00;;;;;;;;;;;;;;;;;;;;;
2022/07/09 01:00:29;;;;;;;;;;;17.30;99.90;;;;;;5011199;28;19943;-86
2022/07/09 01:02:55;;;;;;;;;;;17.20;99.90;;;;;;5008347;28;19917;-86
2022/07/09 01:05:25;;;;;;;;;;;17.20;99.90;;;;;;4999831;28;19917;-86
2022/07/09 01:08:09;;;;;;;;;;;17.30;99.90;;;;;;4994300;28;19917;-84
2022/07/09 01:10:43;;;;;;;;;;;17.20;99.90;;;;;;5006973;28;19918;-86
2022/07/09 01:13:20;;;;;;;;;;;17.20;99.90;;;;;;4985874;28;19941;-85
2022/07/09 01:16:10;;;;;;;;;;;17.20;99.90;;;;;;4997073;28;19940;-86
2022/07/09 01:18:39;;;;;;;;;;;17.20;99.90;;;;;;4979903;28;20033;-86
2022/07/09 01:24:13;;;;;;;;;;;17.20;99.90;;;;;;5035387;28;19917;-84
2022/07/09 01:26:42;;;;;;;;;;;17.10;99.90;;;;;;5032194;28;20486;-85
2022/07/09 01:29:40;;;;;;;;;;;17.10;99.90;;;;;;4993240;28;19916;-86
2022/07/09 01:32:29;;;;;;;;;;;17.10;99.90;;;;;;5002705;28;19952;-85
2022/07/09 01:35:10;;;;;;;;;;;17.10;99.90;;;;;;5012762;28;19918;-85
2022/07/09 01:38:01;;;;;;;;;;;17.10;99.90;;;;;;4994947;28;19921;-86
2022/07/09 01:40:36;;;;;;;;;;;17.00;99.90;;;;;;5003131;28;19925;-85
2022/07/09 01:43:20;;;;;;;;;;;;;;;;;;;;;
2022/07/09 01:46:00;;;;;;;;;;;17.00;99.90;;;;;;5014591;28;19917;-86
2022/07/09 01:48:29;;;;;;;;;;;16.90;99.90;;;;;;5002053;28;19924;-86
2022/07/09 01:54:16;;;;;;;;;;;17.00;99.90;;;;;;4977092;28;20005;-86
2022/07/09 01:56:50;;;;;;;;;;;17.00;99.90;;;;;;4987757;28;20416;-86
2022/07/09 01:59:21;;;;;;;;;;;17.00;99.90;;;;;;5009827;28;19924;-86
2022/07/09 02:01:49;;;;;;;;;;;17.00;99.90;;;;;;4998413;28;19924;-85
2022/07/09 02:04:27;;;;;;;;;;;17.00;99.90;;;;;;4987999;28;20012;-86
2022/07/09 02:07:07;;;;;;;;;;;17.00;99.90;;;;;;5004411;28;19943;-86
2022/07/09 02:09:48;;;;;;;;;;;17.00;99.90;;;;;;5003919;28;19925;-85
2022/07/09 02:12:43;;;;;;;;;;;17.00;99.90;;;;;;4990445;28;19918;-86
2022/07/09 02:15:12;;;;;;;;;;;16.90;99.90;;;;;;5000360;28;19921;-85
2022/07/09 02:17:41;;;;;;;;;;;17.00;99.90;;;;;;5012698;28;19917;-86
2022/07/09 02:20:13;;;;;;;;;;;16.90;99.90;;;;;;4979342;28;20384;-86
2022/07/09 02:22:47;;;;;;;;;;;16.90;99.90;;;;;;4994579;28;19917;-85
2022/07/09 02:25:13;;;;;;;;;;;16.90;99.90;;;;;;5021022;28;19928;-86
2022/07/09 02:27:44;;;;;;;;;;;16.90;99.90;;;;;;5032660;28;20007;-86
2022/07/09 02:30:15;;;;;;;;;;;17.00;99.90;;;;;;4975561;28;20016;-86
2022/07/09 02:32:43;;;;;;;;;;;16.90;99.90;;;;;;4986166;28;20032;-86
2022/07/09 02:38:21;;;;;;;;;;;16.90;99.90;;;;;;4994908;28;20408;-86
2022/07/09 02:40:55;;;;;;;;;;;16.90;99.90;;;;;;5030239;28;20003;-86
2022/07/09 02:43:57;;;;;;;;;;;17.00;99.90;;;;;;5004666;28;19927;-86
2022/07/09 02:46:26;;;;;;;;;;;17.00;99.90;;;;;;4996730;28;19943;-86
2022/07/09 02:48:57;;;;;;;;;;;17.00;99.90;;;;;;5029819;28;19968;-86
2022/07/09 02:51:32;;;;;;;;;;;16.90;99.90;;;;;;5018986;28;19921;-86
2022/07/09 02:54:15;;;;;;;;;;;17.00;99.90;;;;;;4995670;28;20400;-85
2022/07/09 02:57:02;;;;;;;;;;;17.00;99.90;;;;;;5011209;28;19924;-86
2022/07/09 02:59:33;;;;;;;;;;;17.00;99.90;;;;;;4984383;28;20409;-86
2022/07/09 03:02:31;;;;;;;;;;;17.00;99.90;;;;;;4958670;28;19924;-86
2022/07/09 03:05:08;;;;;;;;;;;17.00;99.90;;;;;;4975761;28;19929;-86
2022/07/09 03:07:34;;;;;;;;;;;17.00;99.90;;;;;;5006038;28;20018;-85
2022/07/09 03:10:10;;;;;;;;;;;17.00;99.90;;;;;;4996779;28;19976;-86
2022/07/09 03:13:18;;;;;;;;;;;17.00;99.90;;;;;;4995306;28;19953;-86
2022/07/09 03:18:41;;;;;;;;;;;16.90;99.90;;;;;;4984954;28;19922;-85
2022/07/09 03:21:15;;;;;;;;;;;16.80;99.90;;;;;;4993554;28;19922;-86
2022/07/09 03:23:46;;;;;;;;;;;16.90;99.90;;;;;;4993273;28;19926;-84
2022/07/09 03:26:33;;;;;;;;;;;16.90;99.90;;;;;;5022759;28;20382;-85
2022/07/09 03:29:04;;;;;;;;;;;16.90;99.90;;;;;;4996828;28;20017;-85
2022/07/09 03:34:43;;;;;;;;;;;;;;;;;;;;;
2022/07/09 03:37:28;;;;;;;;;;;16.90;99.90;;;;;;5016605;28;20152;-85
2022/07/09 03:40:02;;;;;;;;;;;16.90;99.90;;;;;;5012126;28;19922;-86
2022/07/09 03:42:31;;;;;;;;;;;17.00;99.90;;;;;;4991795;28;20292;-86
2022/07/09 03:45:01;;;;;;;;;;;16.90;99.90;;;;;;4986985;28;19933;-85
2022/07/09 03:47:32;;;;;;;;;;;17.00;99.90;;;;;;4980730;28;19917;-84
2022/07/09 03:50:04;;;;;;;;;;;16.90;99.90;;;;;;4981533;28;20296;-85
2022/07/09 03:52:30;;;;;;;;;;;16.90;99.90;;;;;;5015449;28;20412;-86
2022/07/09 03:55:00;;;;;;;;;;;16.90;99.90;;;;;;5017911;28;19960;-85
2022/07/09 03:57:31;;;;;;;;;;;16.90;99.90;;;;;;4997735;28;19917;-85
2022/07/09 04:00:12;;;;;;;;;;;;;;;;;;;;;
2022/07/09 04:02:56;;;;;;;;;;;16.90;99.90;;;;;;5045114;28;19917;-85
2022/07/09 04:05:25;;;;;;;;;;;16.90;99.90;;;;;;5027754;28;19941;-85
2022/07/09 04:10:43;;;;;;;;;;;16.90;99.90;;;;;;4971736;28;19929;-85
2022/07/09 04:13:19;;;;;;;;;;;17.00;99.90;;;;;;4943262;28;19965;-85
2022/07/09 04:15:45;;;;;;;;;;;17.00;99.90;;;;;;4985169;22;19918;-87
2022/07/09 04:18:14;;;;;;;;;;;16.90;99.90;;;;;;5019044;28;19958;-90
2022/07/09 04:20:39;;;;;;;;;;;16.90;99.90;;;;;;5040382;28;20024;-89
2022/07/09 04:23:08;;;;;;;;;;;17.00;99.90;;;;;;5032056;28;20003;-87
2022/07/09 04:25:33;;;;;;;;;;;17.00;99.90;;;;;;5056045;28;19920;-88
2022/07/09 04:28:02;;;;;;;;;;;17.00;99.90;;;;;;5046416;28;19940;-91
2022/07/09 04:30:28;;;;;;;;;;;16.90;99.90;;;;;;5002921;28;19917;-88
2022/07/09 04:32:53;;;;;;;;;;;17.00;99.90;;;;;;4978290;28;20398;-88
2022/07/09 04:35:19;;;;;;;;;;;17.00;99.90;;;;;;5002191;28;19917;-89
2022/07/09 04:37:45;;;;;;;;;;;17.00;99.90;;;;;;5001294;28;19917;-89
2022/07/09 04:40:10;;;;;;;;;;;17.00;99.90;;;;;;5015278;28;20394;-87
2022/07/09 04:42:36;;;;;;;;;;;17.00;99.90;;;;;;5014777;28;19940;-88
2022/07/09 04:45:02;;;;;;;;;;;17.00;99.90;;;;;;4997529;28;19931;-87
2022/07/09 04:47:27;;;;;;;;;;;17.00;99.90;;;;;;5031120;28;19924;-87
2022/07/09 04:49:53;;;;;;;;;;;17.00;99.90;;;;;;5035406;28;19970;-88
2022/07/09 04:52:19;;;;;;;;;;;17.10;99.90;;;;;;5018552;28;20015;-88
2022/07/09 04:54:45;;;;;;;;;;;17.10;99.90;;;;;;5016656;28;19995;-88
2022/07/09 04:57:11;;;;;;;;;;;17.10;99.90;;;;;;5012854;28;20366;-86
2022/07/09 04:59:36;;;;;;;;;;;17.10;99.90;;;;;;5017441;28;19946;-88
2022/07/09 05:02:02;;;;;;;;;;;17.10;99.90;;;;;;5027823;28;19924;-88
2022/07/09 05:04:28;;;;;;;;;;;17.10;99.90;;;;;;5019275;28;19939;-88
2022/07/09 05:06:53;;;;;;;;;;;17.10;99.90;;;;;;5008831;28;19928;-88
2022/07/09 05:09:22;;;;;;;;;;;17.10;99.90;;;;;;5009891;28;19981;-88
2022/07/09 05:11:48;;;;;;;;;;;17.10;99.90;;;;;;5050190;28;19916;-88
2022/07/09 05:14:13;;;;;;;;;;;17.10;99.90;;;;;;4989871;28;20035;-88
2022/07/09 05:16:44;;;;;;;;;;;17.20;99.90;;;;;;5001268;28;19956;-88
2022/07/09 05:19:10;;;;;;;;;;;17.20;99.90;;;;;;5011628;28;19925;-89
2022/07/09 05:21:36;;;;;;;;;;;17.20;99.90;;;;;;5033449;28;20007;-88
2022/07/09 05:24:01;;;;;;;;;;;17.20;99.90;;;;;;5011082;28;20011;-88
2022/07/09 05:26:29;;;;;;;;;;;17.20;99.90;;;;;;5019245;28;19917;-88
2022/07/09 05:28:57;;;;;;;;;;;17.30;99.90;;;;;;4994472;28;19917;-87
2022/07/09 05:31:25;;;;;;;;;;;17.30;99.90;;;;;;4978459;28;19985;-88
2022/07/09 05:33:51;;;;;;;;;;;17.30;99.90;;;;;;5007740;28;20250;-88
2022/07/09 05:36:23;;;;;;;;;;;17.20;99.90;;;;;;5036536;28;20148;-88
2022/07/09 05:38:48;;;;;;;;;;;17.40;99.90;;;;;;5010785;28;20327;-88
2022/07/09 05:41:15;;;;;;;;;;;17.30;99.90;;;;;;5017744;28;19924;-88
2022/07/09 05:43:41;;;;;;;;;;;17.30;99.90;;;;;;5015309;28;20313;-88
2022/07/09 05:46:06;;;;;;;;;;;17.40;99.90;;;;;;5033680;28;19925;-86
2022/07/09 05:48:32;;;;;;;;;;;17.40;99.90;;;;;;5009493;28;19921;-88
2022/07/09 05:50:57;;;;;;;;;;;17.40;99.90;;;;;;5000803;28;19917;-91
2022/07/09 05:53:25;;;;;;;;;;;17.40;99.90;;;;;;5002162;28;19928;-89
2022/07/09 05:55:51;;;;;;;;;;;17.50;99.90;;;;;;4994201;28;20337;-90
2022/07/09 05:58:16;;;;;;;;;;;17.50;99.90;;;;;;4979143;28;19928;-91
2022/07/09 06:00:42;;;;;;;;;;;17.50;99.90;;;;;;5006422;28;20438;-88
2022/07/09 06:03:07;;;;;;;;;;;17.50;99.90;;;;;;5033353;28;19947;-88
2022/07/09 06:05:33;;;;;;;;;;;17.50;99.90;;;;;;5041013;28;19964;-88
2022/07/09 06:07:58;;;;;;;;;;;17.60;99.90;;;;;;5035396;28;19957;-90
2022/07/09 06:10:29;;;;;;;;;;;17.60;99.90;;;;;;5015368;28;19975;-88
2022/07/09 06:12:55;;;;;;;;;;;17.60;99.90;;;;;;5053824;28;19917;-88
2022/07/09 06:15:23;;;;;;;;;;;17.70;99.90;;;;;;5016696;28;19924;-88
2022/07/09 06:17:52;;;;;;;;;;;17.70;99.90;;;;;;5009383;28;19921;-87
2022/07/09 06:20:18;;;;;;;;;;;17.70;99.90;;;;;;5018985;28;19923;-88
2022/07/09 06:22:43;;;;;;;;;;;17.70;99.90;;;;;;5019470;28;19984;-88
2022/07/09 06:25:09;;;;;;;;;;;17.70;99.90;;;;;;5019219;28;20058;-88
2022/07/09 06:27:35;;;;;;;;;;;17.80;99.90;;;;;;5007830;28;19963;-89
2022/07/09 06:30:01;;;;;;;;;;;17.80;99.90;;;;;;5010402;28;19917;-89
2022/07/09 06:32:29;;;;;;;;;;;17.80;99.90;;;;;;5013485;28;19921;-88
2022/07/09 06:34:54;;;;;;;;;;;17.80;99.90;;;;;;5011880;28;20613;-89
2022/07/09 06:37:20;;;;;;;;;;;17.80;99.90;;;;;;5021819;28;19925;-89
2022/07/09 06:39:46;;;;;;;;;;;17.80;99.90;;;;;;5017910;28;19945;-87
2022/07/09 06:42:20;;;;;;;;;;;17.80;99.90;;;;;;5033700;28;19917;-89
2022/07/09 06:44:46;;;;;;;;;;;17.80;99.90;;;;;;5024341;28;20404;-90
2022/07/09 06:47:12;;;;;;;;;;;17.90;99.90;;;;;;5026964;28;20015;-88
2022/07/09 06:50:19;;;;;;;;;;;18.00;99.90;;;;;;5016757;28;19960;-89
2022/07/09 06:52:55;;;;;;;;;;;18.00;99.90;;;;;;4969632;28;19918;-88
2022/07/09 06:55:22;;;;;;;;;;;18.00;99.90;;;;;;4996938;28;19917;-87
2022/07/09 06:57:48;;;;;;;;;;;18.10;99.90;;;;;;5031825;28;20278;-87
2022/07/09 07:00:14;;;;;;;;;;;18.20;99.90;;;;;;5024583;28;19921;-89
2022/07/09 07:02:39;;;;;;;;;;;18.20;99.90;;;;;;4997039;28;19973;-89
2022/07/09 07:05:05;;;;;;;;;;;18.30;99.90;;;;;;4999524;28;20176;-89
2022/07/09 07:07:30;;;;;;;;;;;18.20;99.90;;;;;;4993341;28;20011;-89
2022/07/09 07:16:52;;;;;;;;;;;18.30;99.90;;;;;;4947469;29;20017;-89
2022/07/09 07:19:30;;;;;;;;;;;18.30;99.90;;;;;;4939690;28;19932;-89
2022/07/09 07:21:56;;;;;;;;;;;18.30;99.90;;;;;;4921849;28;19918;-89
2022/07/09 07:24:21;;;;;;;;;;;18.30;99.90;;;;;;4981586;28;19979;-88
2022/07/09 07:27:07;;;;;;;;;;;18.30;99.90;;;;;;4982568;28;20000;-89
2022/07/09 07:29:59;;;;;;;;;;;18.30;99.90;;;;;;5025268;28;20049;-88
2022/07/09 07:32:36;;;;;;;;;;;18.20;99.90;;;;;;5025861;28;19940;-89
2022/07/09 07:35:02;;;;;;;;;;;18.40;99.90;;;;;;5002046;28;20422;-89
2022/07/09 07:37:41;;;;;;;;;;;18.40;99.90;;;;;;5004640;28;19917;-89
2022/07/09 07:40:12;;;;;;;;;;;18.40;99.90;;;;;;5036633;28;19921;-88
2022/07/09 07:42:41;;;;;;;;;;;18.50;99.90;;;;;;5030599;28;19964;-88
2022/07/09 07:45:07;;;;;;;;;;;18.50;99.90;;;;;;5010227;28;19937;-88
2022/07/09 07:47:32;;;;;;;;;;;18.50;99.90;;;;;;5018695;23;19922;-70
2022/07/09 07:49:59;;;;;;;;;;;18.60;99.90;;;;;;4972916;28;20333;-70
2022/07/09 07:52:25;;;;;;;;;;;18.60;99.90;;;;;;5026789;28;19960;-70
2022/07/09 07:54:50;;;;;;;;;;;18.70;99.90;;;;;;5007607;28;19979;-70
2022/07/09 07:57:16;;;;;;;;;;;18.70;99.90;;;;;;4991051;28;20348;-71
2022/07/09 07:59:41;;;;;;;;;;;18.80;99.90;;;;;;5009302;28;19917;-70
2022/07/09 08:02:07;;;;;;;;;;;18.90;99.90;;;;;;5005606;28;19925;-70
2022/07/09 08:04:32;;;;;;;;;;;19.00;99.90;;;;;;4986703;28;20428;-70
2022/07/09 08:06:58;;;;;;;;;;;19.00;99.90;;;;;;4989724;28;19917;-70
2022/07/09 08:09:24;;;;;;;;;;;19.00;99.90;;;;;;5011453;28;19921;-70
2022/07/09 08:11:49;;;;;;;;;;;19.00;99.90;;;;;;4994263;28;19921;-70
2022/07/09 08:14:15;;;;;;;;;;;19.10;99.90;;;;;;4993747;28;19944;-70
2022/07/09 08:16:40;;;;;;;;;;;19.20;99.90;;;;;;5011730;28;19924;-70
2022/07/09 08:19:06;;;;;;;;;;;19.30;99.90;;;;;;5010396;28;20130;-70
2022/07/09 08:21:31;;;;;;;;;;;19.30;99.90;;;;;;5011268;28;19921;-70
2022/07/09 08:24:00;;;;;;;;;;;19.30;99.90;;;;;;5021293;28;19925;-70
2022/07/09 08:26:26;;;;;;;;;;;19.40;99.90;;;;;;5029459;28;19924;-70
2022/07/09 08:28:51;;;;;;;;;;;19.50;99.90;;;;;;5027707;28;20340;-71
2022/07/09 08:31:18;;;;;;;;;;;19.60;99.90;;;;;;4997987;28;20085;-70
2022/07/09 08:33:44;;;;;;;;;;;19.60;99.90;;;;;;4997283;28;20349;-70
2022/07/09 08:36:09;;;;;;;;;;;19.50;99.90;;;;;;4995909;28;19920;-71
2022/07/09 08:38:35;;;;;;;;;;;19.50;99.90;;;;;;5013114;28;20362;-70
2022/07/09 08:41:03;;;;;;;;;;;19.40;99.90;;;;;;5009950;28;19921;-70
2022/07/09 08:43:30;;;;;;;;;;;19.50;99.90;;;;;;5010524;28;19932;-71
2022/07/09 08:45:56;;;;;;;;;;;19.50;99.90;;;;;;4977121;28;20386;-70
2022/07/09 08:48:21;;;;;;;;;;;19.50;99.90;;;;;;4993074;28;20286;-71
2022/07/09 08:50:50;;;;;;;;;;;19.60;99.90;;;;;;4992994;28;19921;-70
2022/07/09 08:53:16;;;;;;;;;;;19.60;99.90;;;;;;4992613;28;20317;-70
2022/07/09 08:55:42;;;;;;;;;;;19.70;99.90;;;;;;5002954;28;20278;-70
2022/07/09 08:58:09;;;;;;;;;;;19.80;99.90;;;;;;5015515;28;19986;-70
2022/07/09 09:00:35;;;;;;;;;;;19.80;99.90;;;;;;5010686;28;20008;-71
2022/07/09 09:03:00;;;;;;;;;;;19.80;99.90;;;;;;4995335;28;20354;-70
2022/07/09 09:05:26;;;;;;;;;;;19.80;99.90;;;;;;5010255;28;19943;-70
2022/07/09 09:07:51;;;;;;;;;;;19.80;99.90;;;;;;5012287;28;19917;-71
2022/07/09 09:10:23;;;;;;;;;;;19.90;99.90;;;;;;5011356;28;20096;-70
2022/07/09 09:12:54;;;;;;;;;;;19.90;99.90;;;;;;5016471;28;20170;-70
2022/07/09 09:15:20;;;;;;;;;;;19.90;99.90;;;;;;5016296;28;19917;-70
2022/07/09 09:17:46;;;;;;;;;;;19.90;99.90;;;;;;5030584;28;19917;-71
2022/07/09 09:20:15;;;;;;;;;;;19.90;99.90;;;;;;5010531;28;20369;-70
2022/07/09 09:22:47;;;;;;;;;;;19.90;99.90;;;;;;4994572;28;19928;-70
2022/07/09 09:25:19;;;;;;;;;;;19.80;99.90;;;;;;5009407;28;19921;-70
2022/07/09 09:27:55;;;;;;;;;;;19.70;99.90;;;;;;4992111;28;19917;-70
2022/07/09 09:30:21;;;;;;;;;;;19.70;99.90;;;;;;5009851;28;20018;-71
2022/07/09 09:32:57;;;;;;;;;;;19.90;99.90;;;;;;4975744;28;20402;-70
2022/07/09 09:35:46;;;;;;;;;;;20.00;99.90;;;;;;4995961;28;19924;-70
2022/07/09 09:38:11;;;;;;;;;;;20.00;99.90;;;;;;5000678;28;20620;-70
2022/07/09 09:40:37;;;;;;;;;;;20.00;99.90;;;;;;5009882;28;20042;-70
2022/07/09 09:43:03;;;;;;;;;;;20.00;99.90;;;;;;4975453;28;20333;-70
2022/07/09 09:45:28;;;;;;;;;;;20.00;99.90;;;;;;4975584;28;19917;-69
2022/07/09 09:47:54;;;;;;;;;;;20.00;99.90;;;;;;4991512;28;20004;-69
2022/07/09 09:50:23;;;;;;;;;;;20.20;99.90;;;;;;5011253;28;19917;-70
2022/07/09 09:52:49;;;;;;;;;;;20.20;99.90;;;;;;4993347;28;19925;-70
2022/07/09 09:55:16;;;;;;;;;;;20.20;99.90;;;;;;5009428;28;20282;-70
2022/07/09 09:57:42;;;;;;;;;;;20.10;99.90;;;;;;5009187;28;20215;-70
2022/07/09 10:00:08;;;;;;;;;;;20.20;99.90;;;;;;5008597;28;20406;-70
2022/07/09 10:02:35;;;;;;;;;;;20.20;99.90;;;;;;5009090;28;19921;-70
2022/07/09 10:05:01;;;;;;;;;;;20.30;99.90;;;;;;5025509;28;19916;-70
2022/07/09 10:07:27;;;;;;;;;;;20.30;99.90;;;;;;5011316;28;19924;-70
2022/07/09 10:09:54;;;;;;;;;;;20.30;99.90;;;;;;5011023;28;19917;-70
2022/07/09 10:12:35;;;;;;;;;;;20.20;99.90;;;;;;5022399;28;19924;-70
2022/07/09 10:15:01;;;;;;;;;;;20.30;99.90;;;;;;4987378;28;19917;-70
2022/07/09 10:17:27;;;;;;;;;;;20.40;99.90;;;;;;5010594;28;20266;-70
2022/07/09 10:19:57;;;;;;;;;;;20.50;99.90;;;;;;5028183;28;19924;-71
2022/07/09 10:22:46;;;;;;;;;;;20.60;99.90;;;;;;5018352;28;20321;-70
2022/07/09 10:25:14;;;;;;;;;;;20.40;99.90;;;;;;4996730;28;19999;-70
2022/07/09 10:27:42;;;;;;;;;;;20.30;99.90;;;;;;5008796;28;19917;-70
2022/07/09 10:30:08;;;;;;;;;;;20.20;99.90;;;;;;5021543;28;19925;-70
2022/07/09 10:32:35;;;;;;;;;;;20.20;99.90;;;;;;5007741;28;19918;-70
2022/07/09 10:35:05;;;;;;;;;;;20.20;99.90;;;;;;4992949;28;19940;-70
2022/07/09 10:37:30;;;;;;;;;;;20.30;99.90;;;;;;4991358;28;19989;-70
2022/07/09 10:39:56;;;;;;;;;;;20.30;99.90;;;;;;5008676;28;19918;-70
2022/07/09 10:42:23;;;;;;;;;;;20.30;99.90;;;;;;4990925;28;19925;-70
2022/07/09 10:44:53;;;;;;;;;;;20.20;99.90;;;;;;5008385;28;19917;-70
2022/07/09 10:47:19;;;;;;;;;;;20.20;99.90;;;;;;4973496;28;19935;-70
2022/07/09 10:49:44;;;;;;;;;;;20.10;99.90;;;;;;5008000;28;19922;-70
2022/07/09 10:52:10;;;;;;;;;;;20.00;99.90;;;;;;4990288;28;20537;-70
2022/07/09 10:54:45;;;;;;;;;;;20.00;99.90;;;;;;5000043;28;19968;-70
2022/07/09 10:57:10;;;;;;;;;;;19.90;99.90;;;;;;5008486;28;19917;-70
2022/07/09 10:59:36;;;;;;;;;;;19.80;99.90;;;;;;5008117;28;20173;-70
2022/07/09 11:02:02;;;;;;;;;;;19.70;99.90;;;;;;5008457;28;20369;-70
2022/07/09 11:04:28;;;;;;;;;;;19.60;99.90;;;;;;5020139;28;19921;-70
2022/07/09 11:06:54;;;;;;;;;;;19.60;99.90;;;;;;5004516;28;19917;-70
2022/07/09 11:09:19;;;;;;;;;;;19.70;99.90;;;;;;5009278;28;19932;-70
2022/07/09 11:11:47;;;;;;;;;;;19.80;99.90;;;;;;5028207;28;19924;-70
2022/07/09 11:14:12;;;;;;;;;;;20.00;99.90;;;;;;5012886;28;20101;-70
2022/07/09 11:16:38;;;;;;;;;;;20.20;99.90;;;;;;5025489;28;19917;-70
2022/07/09 11:19:16;;;;;;;;;;;20.30;99.90;;;;;;5027428;28;20366;-70
2022/07/09 11:21:42;;;;;;;;;;;20.30;99.90;;;;;;5026723;28;20050;-70
2022/07/09 11:24:18;;;;;;;;;;;20.30;99.90;;;;;;5012962;28;20418;-70
2022/07/09 11:26:44;;;;;;;;;;;20.30;99.90;;;;;;5006230;28;20008;-71
2022/07/09 11:29:10;;;;;;;;;;;20.30;99.90;;;;;;4989909;28;20020;-71
2022/07/09 11:31:35;;;;;;;;;;;20.40;99.90;;;;;;4990087;28;20023;-70
2022/07/09 11:34:11;;;;;;;;;;;20.40;99.90;;;;;;4984377;28;19917;-70
2022/07/09 11:36:37;;;;;;;;;;;20.50;99.90;;;;;;5026503;28;19965;-70
2022/07/09 11:39:03;;;;;;;;;;;20.60;99.90;;;;;;5029002;28;19924;-71
2022/07/09 11:41:39;;;;;;;;;;;20.60;99.90;;;;;;5008223;28;19930;-70
2022/07/09 11:44:04;;;;;;;;;;;20.60;99.90;;;;;;5007902;28;19917;-70
2022/07/09 11:46:30;;;;;;;;;;;20.70;99.90;;;;;;5031905;28;19917;-71
2022/07/09 11:48:55;;;;;;;;;;;20.70;99.90;;;;;;5013236;28;20462;-71
2022/07/09 11:51:28;;;;;;;;;;;20.70;99.90;;;;;;5002268;28;20060;-71
2022/07/09 11:53:53;;;;;;;;;;;20.70;99.90;;;;;;5017674;28;20401;-70
2022/07/09 11:56:19;;;;;;;;;;;20.60;99.90;;;;;;4994102;28;19917;-70
2022/07/09 11:58:51;;;;;;;;;;;20.70;99.90;;;;;;5011735;28;20044;-71
2022/07/09 12:01:16;;;;;;;;;;;20.70;99.90;;;;;;5016301;28;19928;-70
2022/07/09 12:03:49;;;;;;;;;;;20.70;99.90;;;;;;5021884;28;19928;-70
2022/07/09 12:06:14;;;;;;;;;;;20.80;99.90;;;;;;5030591;28;20490;-70
2022/07/09 12:08:40;;;;;;;;;;;20.80;99.90;;;;;;5023499;28;19924;-70
2022/07/09 12:11:05;;;;;;;;;;;20.90;99.90;;;;;;5012649;28;20031;-70
2022/07/09 12:13:31;;;;;;;;;;;20.90;99.90;;;;;;5013629;28;19917;-70
2022/07/09 12:15:56;;;;;;;;;;;20.90;99.90;;;;;;5001020;28;19928;-70
2022/07/09 12:18:22;;;;;;;;;;;21.00;99.90;;;;;;4992267;28;20137;-70
2022/07/09 12:20:48;;;;;;;;;;;21.00;99.90;;;;;;5010987;28;19968;-70
2022/07/09 12:23:13;;;;;;;;;;;21.20;99.90;;;;;;4993188;28;20016;-70
2022/07/09 12:25:39;;;;;;;;;;;21.20;99.90;;;;;;4993150;28;19917;-70
2022/07/09 12:28:04;;;;;;;;;;;21.20;99.90;;;;;;4996718;28;19971;-70
2022/07/09 12:30:30;;;;;;;;;;;21.30;99.90;;;;;;5030318;28;20019;-70
2022/07/09 12:32:58;;;;;;;;;;;21.40;99.90;;;;;;5015860;28;19932;-70
2022/07/09 12:35:24;;;;;;;;;;;21.40;99.90;;;;;;4991900;28;19921;-70
2022/07/09 12:37:50;;;;;;;;;;;21.50;99.90;;;;;;5011007;28;20043;-70
2022/07/09 12:40:15;;;;;;;;;;;21.60;99.90;;;;;;5010120;28;20410;-70
2022/07/09 12:42:41;;;;;;;;;;;21.50;99.90;;;;;;5011046;28;19927;-70
2022/07/09 12:45:07;;;;;;;;;;;21.50;99.90;;;;;;5010122;28;19925;-70
2022/07/09 12:47:32;;;;;;;;;;;21.40;99.90;;;;;;5011063;28;19917;-70
2022/07/09 12:49:58;;;;;;;;;;;21.40;99.90;;;;;;4992494;28;19917;-71
2022/07/09 12:52:23;;;;;;;;;;;21.40;99.90;;;;;;5012687;28;20298;-70
2022/07/09 12:54:49;;;;;;;;;;;21.30;99.90;;;;;;5029507;28;19924;-70
2022/07/09 12:57:14;;;;;;;;;;;21.20;99.90;;;;;;5029723;28;20488;-70
2022/07/09 12:59:40;;;;;;;;;;;21.20;99.90;;;;;;5012248;28;19917;-70
2022/07/09 13:02:07;;;;;;;;;;;21.30;99.90;;;;;;4979887;28;20031;-70
2022/07/09 13:04:32;;;;;;;;;;;21.40;99.90;;;;;;4992492;28;20243;-70
2022/07/09 13:06:58;;;;;;;;;;;21.40;99.90;;;;;;4991984;28;19925;-70
2022/07/09 13:09:24;;;;;;;;;;;21.30;99.90;;;;;;5009853;28;19923;-70
2022/07/09 13:11:49;;;;;;;;;;;21.50;99.90;;;;;;4995037;28;20169;-70
2022/07/09 13:14:15;;;;;;;;;;;21.40;99.90;;;;;;5029268;28;20012;-70
2022/07/09 13:16:41;;;;;;;;;;;21.50;99.90;;;;;;4996532;28;19940;-70
2022/07/09 13:19:06;;;;;;;;;;;21.30;99.90;;;;;;5009186;28;19918;-70
2022/07/09 13:21:32;;;;;;;;;;;21.20;99.90;;;;;;4976454;28;19922;-70
2022/07/09 13:23:57;;;;;;;;;;;21.20;99.90;;;;;;5009444;28;20283;-70
2022/07/09 13:26:22;;;;;;;;;;;21.10;99.90;;;;;;5009756;28;20016;-69
2022/07/09 13:28:48;;;;;;;;;;;21.10;99.90;;;;;;5009881;28;19933;-70
2022/07/09 13:31:14;;;;;;;;;;;21.00;99.90;;;;;;5009344;28;19963;-69
2022/07/09 13:33:40;;;;;;;;;;;20.90;99.90;;;;;;5017657;28;20285;-70
2022/07/09 13:36:06;;;;;;;;;;;20.90;99.90;;;;;;4992221;28;19972;-70
2022/07/09 13:38:32;;;;;;;;;;;20.90;99.90;;;;;;4992333;28;19918;-70
2022/07/09 13:40:58;;;;;;;;;;;20.80;99.90;;;;;;4991872;28;19929;-70
2022/07/09 13:43:25;;;;;;;;;;;20.70;99.90;;;;;;5017145;28;19917;-70
2022/07/09 13:45:51;;;;;;;;;;;20.70;99.90;;;;;;5011654;28;20441;-70
2022/07/09 13:48:16;;;;;;;;;;;20.80;99.90;;;;;;5028895;28;19996;-70
2022/07/09 13:50:42;;;;;;;;;;;20.70;99.90;;;;;;5007978;28;20000;-70
2022/07/09 13:53:08;;;;;;;;;;;20.70;99.90;;;;;;5005338;28;20027;-70
2022/07/09 13:55:34;;;;;;;;;;;20.70;99.90;;;;;;5009632;28;19921;-70
2022/07/09 13:58:00;;;;;;;;;;;20.70;99.90;;;;;;5009265;28;19917;-69
2022/07/09 14:00:25;;;;;;;;;;;20.70;99.90;;;;;;4991345;28;19925;-70
2022/07/09 14:02:51;;;;;;;;;;;20.50;99.90;;;;;;5005913;28;19920;-70
2022/07/09 14:05:16;;;;;;;;;;;20.30;99.90;;;;;;5027875;28;19917;-70
2022/07/09 14:07:42;;;;;;;;;;;20.30;99.90;;;;;;5030019;28;19933;-70
2022/07/09 14:10:08;;;;;;;;;;;20.20;99.90;;;;;;4992924;28;19963;-70
2022/07/09 14:12:33;;;;;;;;;;;20.20;99.90;;;;;;5011190;28;19921;-70
2022/07/09 14:14:59;;;;;;;;;;;20.00;99.90;;;;;;5028375;28;19924;-70
2022/07/09 14:17:25;;;;;;;;;;;20.00;99.90;;;;;;5017393;28;20012;-70
2022/07/09 14:19:51;;;;;;;;;;;20.00;99.90;;;;;;5008007;28;19924;-69
2022/07/09 14:22:16;;;;;;;;;;;20.00;99.90;;;;;;5009200;28;20379;-70
2022/07/09 14:24:42;;;;;;;;;;;20.00;99.90;;;;;;4991632;28;20485;-70
2022/07/09 14:27:07;;;;;;;;;;;20.00;99.90;;;;;;5008464;28;19964;-70
2022/07/09 14:29:33;;;;;;;;;;;20.10;99.90;;;;;;5014794;28;20283;-69
2022/07/09 14:31:58;;;;;;;;;;;20.10;99.90;;;;;;4991843;28;20264;-70
2022/07/09 14:34:24;;;;;;;;;;;20.30;99.90;;;;;;5027790;28;20023;-70
2022/07/09 14:36:50;;;;;;;;;;;20.20;99.90;;;;;;4995565;28;19917;-70
2022/07/09 14:39:16;;;;;;;;;;;20.20;99.90;;;;;;5008774;28;20381;-70
2022/07/09 14:41:43;;;;;;;;;;;20.20;99.90;;;;;;5008731;28;19921;-70
2022/07/09 14:44:09;;;;;;;;;;;20.20;99.90;;;;;;5008548;28;19917;-69
2022/07/09 14:46:34;;;;;;;;;;;20.40;99.90;;;;;;5007689;28;20359;-69
2022/07/09 14:49:00;;;;;;;;;;;20.60;99.90;;;;;;5002867;28;19971;-69
2022/07/09 14:51:25;;;;;;;;;;;20.60;99.90;;;;;;5010347;28;19940;-69
2022/07/09 14:53:51;;;;;;;;;;;20.50;99.90;;;;;;5012242;28;19960;-69
2022/07/09 14:56:17;;;;;;;;;;;20.30;99.90;;;;;;5008816;28;20370;-69
2022/07/09 14:58:42;;;;;;;;;;;20.10;99.90;;;;;;4990324;28;19961;-69
2022/07/09 15:01:08;;;;;;;;;;;20.10;99.90;;;;;;5010993;28;19921;-68